Pond Eddy, New York
Current Conditions -  °F | °C
As of 1:55 PM on Wednesday 26 Nov 2014 (Local Time) from KMSV Reporting Station
Overcast Overcast  
Wind Chill: 30°   Ceiling: 300
Heat Index: 30°   Visibility: 1mi
Dew Point: 28°   Wind: 3mph
Humidity: 93%   Direction: 40°NE
Pressure: 29.96"   Gusts: NA
Location:  41.44°N, 74.82°W
Report Text: KMSV 261855Z AUTO 04003KT 1SM OVC003 M01/M02 A2996 RMK AO1
Loading
Personal Weather Stations






























Interactive Weather Map New forecast layout! Learn more

10-Day Weather Forecast

Advertisements
Track Severe Weather on mobile